sensor_id;sensor_type;location;lat;lon;timestamp;temperature;humidity
13721;DHT22;6932;51.438;5.470;2022-09-09T00:00:26;35.30;48.50
13721;DHT22;6932;51.438;5.470;2022-09-09T00:03:02;35.30;48.60
13721;DHT22;6932;51.438;5.470;2022-09-09T00:05:44;35.30;48.50
13721;DHT22;6932;51.438;5.470;2022-09-09T00:08:19;35.30;48.50
13721;DHT22;6932;51.438;5.470;2022-09-09T00:10:54;35.30;48.60
13721;DHT22;6932;51.438;5.470;2022-09-09T00:16:17;35.30;49.10
13721;DHT22;6932;51.438;5.470;2022-09-09T00:21:17;35.30;48.50
13721;DHT22;6932;51.438;5.470;2022-09-09T00:23:55;35.30;48.60
13721;DHT22;6932;51.438;5.470;2022-09-09T00:26:32;35.20;48.40
13721;DHT22;6932;51.438;5.470;2022-09-09T00:31:37;35.20;48.50
13721;DHT22;6932;51.438;5.470;2022-09-09T00:34:18;35.20;48.50
13721;DHT22;6932;51.438;5.470;2022-09-09T00:36:48;35.20;48.50
13721;DHT22;6932;51.438;5.470;2022-09-09T00:39:37;35.20;48.50
13721;DHT22;6932;51.438;5.470;2022-09-09T00:42:16;35.20;48.50
13721;DHT22;6932;51.438;5.470;2022-09-09T00:45:12;35.20;48.50
13721;DHT22;6932;51.438;5.470;2022-09-09T00:48:10;35.20;48.50
13721;DHT22;6932;51.438;5.470;2022-09-09T00:54:03;35.20;48.50
13721;DHT22;6932;51.438;5.470;2022-09-09T00:56:47;35.20;48.50
13721;DHT22;6932;51.438;5.470;2022-09-09T00:59:46;35.20;48.50
13721;DHT22;6932;51.438;5.470;2022-09-09T01:02:39;35.20;48.40
13721;DHT22;6932;51.438;5.470;2022-09-09T01:05:18;35.20;48.40
13721;DHT22;6932;51.438;5.470;2022-09-09T01:07:51;35.20;48.40
13721;DHT22;6932;51.438;5.470;2022-09-09T01:10:30;35.20;48.50
13721;DHT22;6932;51.438;5.470;2022-09-09T01:13:11;35.20;48.50
13721;DHT22;6932;51.438;5.470;2022-09-09T01:15:44;35.20;48.50
13721;DHT22;6932;51.438;5.470;2022-09-09T01:18:14;35.20;48.50
13721;DHT22;6932;51.438;5.470;2022-09-09T01:20:53;35.20;48.50
13721;DHT22;6932;51.438;5.470;2022-09-09T01:24:03;35.20;48.50
13721;DHT22;6932;51.438;5.470;2022-09-09T01:26:45;35.10;48.50
13721;DHT22;6932;51.438;5.470;2022-09-09T01:29:15;35.20;48.50
13721;DHT22;6932;51.438;5.470;2022-09-09T01:31:52;35.20;48.40
13721;DHT22;6932;51.438;5.470;2022-09-09T01:34:35;35.20;48.60
13721;DHT22;6932;51.438;5.470;2022-09-09T01:37:08;35.10;48.40
13721;DHT22;6932;51.438;5.470;2022-09-09T01:39:39;35.20;48.50
13721;DHT22;6932;51.438;5.470;2022-09-09T01:42:09;35.20;48.50
13721;DHT22;6932;51.438;5.470;2022-09-09T01:44:37;35.10;48.50
13721;DHT22;6932;51.438;5.470;2022-09-09T01:47:04;35.20;48.50
13721;DHT22;6932;51.438;5.470;2022-09-09T01:52:36;35.10;48.50
13721;DHT22;6932;51.438;5.470;2022-09-09T01:55:03;35.10;48.40
13721;DHT22;6932;51.438;5.470;2022-09-09T01:57:36;35.10;48.40
13721;DHT22;6932;51.438;5.470;2022-09-09T02:00:24;35.10;48.40
13721;DHT22;6932;51.438;5.470;2022-09-09T02:03:15;35.10;48.40
13721;DHT22;6932;51.438;5.470;2022-09-09T02:06:04;35.10;48.40
13721;DHT22;6932;51.438;5.470;2022-09-09T02:08:57;35.10;48.40
13721;DHT22;6932;51.438;5.470;2022-09-09T02:11:27;35.10;48.30
13721;DHT22;6932;51.438;5.470;2022-09-09T02:14:13;35.20;48.30
13721;DHT22;6932;51.438;5.470;2022-09-09T02:17:10;35.10;48.40
13721;DHT22;6932;51.438;5.470;2022-09-09T02:19:53;35.20;48.30
13721;DHT22;6932;51.438;5.470;2022-09-09T02:22:27;35.20;48.40
13721;DHT22;6932;51.438;5.470;2022-09-09T02:24:58;35.20;48.40
13721;DHT22;6932;51.438;5.470;2022-09-09T02:27:25;35.20;48.40
13721;DHT22;6932;51.438;5.470;2022-09-09T02:29:52;35.20;48.30
13721;DHT22;6932;51.438;5.470;2022-09-09T02:32:22;35.20;48.40
13721;DHT22;6932;51.438;5.470;2022-09-09T02:35:04;35.10;48.30
13721;DHT22;6932;51.438;5.470;2022-09-09T02:37:38;35.20;48.40
13721;DHT22;6932;51.438;5.470;2022-09-09T02:40:07;35.10;48.40
13721;DHT22;6932;51.438;5.470;2022-09-09T02:42:48;35.20;48.40
13721;DHT22;6932;51.438;5.470;2022-09-09T02:45:27;35.10;48.40
13721;DHT22;6932;51.438;5.470;2022-09-09T02:48:14;35.10;48.40
13721;DHT22;6932;51.438;5.470;2022-09-09T02:51:02;35.20;48.50
13721;DHT22;6932;51.438;5.470;2022-09-09T02:53:51;35.10;48.40
13721;DHT22;6932;51.438;5.470;2022-09-09T02:56:32;35.10;48.40
13721;DHT22;6932;51.438;5.470;2022-09-09T02:59:05;35.10;48.40
13721;DHT22;6932;51.438;5.470;2022-09-09T03:01:30;35.10;48.40
13721;DHT22;6932;51.438;5.470;2022-09-09T03:03:57;35.10;48.50
13721;DHT22;6932;51.438;5.470;2022-09-09T03:06:22;35.10;48.50
13721;DHT22;6932;51.438;5.470;2022-09-09T03:08:48;35.10;48.50
13721;DHT22;6932;51.438;5.470;2022-09-09T03:11:16;35.00;48.40
13721;DHT22;6932;51.438;5.470;2022-09-09T03:13:42;35.10;48.60
13721;DHT22;6932;51.438;5.470;2022-09-09T03:16:08;35.10;48.50
13721;DHT22;6932;51.438;5.470;2022-09-09T03:18:33;35.10;48.50
13721;DHT22;6932;51.438;5.470;2022-09-09T03:21:00;35.10;48.50
13721;DHT22;6932;51.438;5.470;2022-09-09T03:23:26;35.10;48.50
13721;DHT22;6932;51.438;5.470;2022-09-09T03:25:52;35.00;48.40
13721;DHT22;6932;51.438;5.470;2022-09-09T03:28:22;35.10;48.50
13721;DHT22;6932;51.438;5.470;2022-09-09T03:30:48;35.10;48.50
13721;DHT22;6932;51.438;5.470;2022-09-09T03:33:14;35.10;48.50
13721;DHT22;6932;51.438;5.470;2022-09-09T03:35:47;35.10;48.50
13721;DHT22;6932;51.438;5.470;2022-09-09T03:38:14;35.00;48.40
13721;DHT22;6932;51.438;5.470;2022-09-09T03:40:47;35.10;48.50
13721;DHT22;6932;51.438;5.470;2022-09-09T03:43:14;35.10;48.50
13721;DHT22;6932;51.438;5.470;2022-09-09T03:45:45;35.10;48.40
13721;DHT22;6932;51.438;5.470;2022-09-09T03:48:15;35.00;48.30
13721;DHT22;6932;51.438;5.470;2022-09-09T03:50:49;35.10;49.00
13721;DHT22;6932;51.438;5.470;2022-09-09T03:53:18;35.10;48.40
13721;DHT22;6932;51.438;5.470;2022-09-09T03:55:51;35.10;48.40
13721;DHT22;6932;51.438;5.470;2022-09-09T03:58:20;35.10;48.40
13721;DHT22;6932;51.438;5.470;2022-09-09T04:01:03;35.10;48.30
13721;DHT22;6932;51.438;5.470;2022-09-09T04:03:38;35.10;48.40
13721;DHT22;6932;51.438;5.470;2022-09-09T04:06:06;35.10;48.40
13721;DHT22;6932;51.438;5.470;2022-09-09T04:08:34;35.10;48.40
13721;DHT22;6932;51.438;5.470;2022-09-09T04:11:02;35.10;48.30
13721;DHT22;6932;51.438;5.470;2022-09-09T04:13:30;35.10;48.30
13721;DHT22;6932;51.438;5.470;2022-09-09T04:15:58;35.10;48.40
13721;DHT22;6932;51.438;5.470;2022-09-09T04:18:25;35.10;48.40
13721;DHT22;6932;51.438;5.470;2022-09-09T04:20:53;35.00;48.30
13721;DHT22;6932;51.438;5.470;2022-09-09T04:23:23;35.00;48.40
13721;DHT22;6932;51.438;5.470;2022-09-09T04:25:53;35.00;48.30
13721;DHT22;6932;51.438;5.470;2022-09-09T04:28:22;35.00;48.30
13721;DHT22;6932;51.438;5.470;2022-09-09T04:30:49;35.00;48.40
13721;DHT22;6932;51.438;5.470;2022-09-09T04:33:15;35.00;48.40
13721;DHT22;6932;51.438;5.470;2022-09-09T04:35:47;35.00;48.40
13721;DHT22;6932;51.438;5.470;2022-09-09T04:38:16;35.00;48.50
13721;DHT22;6932;51.438;5.470;2022-09-09T04:40:46;34.90;48.40
13721;DHT22;6932;51.438;5.470;2022-09-09T04:43:13;34.90;48.40
13721;DHT22;6932;51.438;5.470;2022-09-09T04:45:40;34.90;48.40
13721;DHT22;6932;51.438;5.470;2022-09-09T04:48:07;34.90;48.40
13721;DHT22;6932;51.438;5.470;2022-09-09T04:50:33;34.90;48.40
13721;DHT22;6932;51.438;5.470;2022-09-09T04:53:06;34.90;48.40
13721;DHT22;6932;51.438;5.470;2022-09-09T04:55:33;34.90;48.40
13721;DHT22;6932;51.438;5.470;2022-09-09T04:58:08;34.90;48.40
13721;DHT22;6932;51.438;5.470;2022-09-09T05:00:34;34.90;48.40
13721;DHT22;6932;51.438;5.470;2022-09-09T05:03:07;34.90;48.40
13721;DHT22;6932;51.438;5.470;2022-09-09T05:05:34;34.90;48.40
13721;DHT22;6932;51.438;5.470;2022-09-09T05:08:09;34.90;48.50
13721;DHT22;6932;51.438;5.470;2022-09-09T05:10:37;34.90;48.40
13721;DHT22;6932;51.438;5.470;2022-09-09T05:13:04;34.90;48.50
13721;DHT22;6932;51.438;5.470;2022-09-09T05:15:31;34.90;48.50
13721;DHT22;6932;51.438;5.470;2022-09-09T05:18:01;34.90;48.50
13721;DHT22;6932;51.438;5.470;2022-09-09T05:20:28;34.80;48.40
13721;DHT22;6932;51.438;5.470;2022-09-09T05:22:55;34.80;48.40
13721;DHT22;6932;51.438;5.470;2022-09-09T05:25:22;34.80;48.50
13721;DHT22;6932;51.438;5.470;2022-09-09T05:27:51;34.80;48.50
13721;DHT22;6932;51.438;5.470;2022-09-09T05:30:17;34.80;48.50
13721;DHT22;6932;51.438;5.470;2022-09-09T05:32:44;34.80;48.50
13721;DHT22;6932;51.438;5.470;2022-09-09T05:35:10;34.80;48.50
13721;DHT22;6932;51.438;5.470;2022-09-09T05:37:35;34.80;48.50
13721;DHT22;6932;51.438;5.470;2022-09-09T05:40:01;34.80;48.50
13721;DHT22;6932;51.438;5.470;2022-09-09T05:42:31;34.80;48.50
13721;DHT22;6932;51.438;5.470;2022-09-09T05:44:57;34.80;48.50
13721;DHT22;6932;51.438;5.470;2022-09-09T05:47:23;34.80;48.60
13721;DHT22;6932;51.438;5.470;2022-09-09T05:49:49;34.80;48.60
13721;DHT22;6932;51.438;5.470;2022-09-09T05:52:15;34.80;48.70
13721;DHT22;6932;51.438;5.470;2022-09-09T05:54:40;34.70;48.70
13721;DHT22;6932;51.438;5.470;2022-09-09T05:57:07;34.70;48.80
13721;DHT22;6932;51.438;5.470;2022-09-09T05:59:33;34.70;48.80
13721;DHT22;6932;51.438;5.470;2022-09-09T06:01:59;34.70;48.90
13721;DHT22;6932;51.438;5.470;2022-09-09T06:04:25;34.70;49.60
13721;DHT22;6932;51.438;5.470;2022-09-09T06:06:50;34.60;48.90
13721;DHT22;6932;51.438;5.470;2022-09-09T06:09:16;34.60;49.00
13721;DHT22;6932;51.438;5.470;2022-09-09T06:11:42;34.60;49.10
13721;DHT22;6932;51.438;5.470;2022-09-09T06:14:09;34.60;49.20
13721;DHT22;6932;51.438;5.470;2022-09-09T06:16:35;34.60;49.20
13721;DHT22;6932;51.438;5.470;2022-09-09T06:19:03;34.50;49.20
13721;DHT22;6932;51.438;5.470;2022-09-09T06:21:34;34.50;49.20
13721;DHT22;6932;51.438;5.470;2022-09-09T06:24:05;34.50;49.30
13721;DHT22;6932;51.438;5.470;2022-09-09T06:26:33;34.50;49.50
13721;DHT22;6932;51.438;5.470;2022-09-09T06:29:01;34.50;49.60
13721;DHT22;6932;51.438;5.470;2022-09-09T06:31:30;34.50;49.60
13721;DHT22;6932;51.438;5.470;2022-09-09T06:33:59;34.40;49.70
13721;DHT22;6932;51.438;5.470;2022-09-09T06:36:32;34.40;49.70
13721;DHT22;6932;51.438;5.470;2022-09-09T06:39:00;34.40;50.20
13721;DHT22;6932;51.438;5.470;2022-09-09T06:41:31;34.40;49.90
13721;DHT22;6932;51.438;5.470;2022-09-09T06:43:58;34.30;50.10
13721;DHT22;6932;51.438;5.470;2022-09-09T06:46:26;34.30;50.20
13721;DHT22;6932;51.438;5.470;2022-09-09T06:48:54;34.30;50.30
13721;DHT22;6932;51.438;5.470;2022-09-09T06:51:27;34.20;50.20
13721;DHT22;6932;51.438;5.470;2022-09-09T06:53:58;34.20;50.30
13721;DHT22;6932;51.438;5.470;2022-09-09T06:56:28;34.20;50.40
13721;DHT22;6932;51.438;5.470;2022-09-09T06:59:00;34.10;50.30
13721;DHT22;6932;51.438;5.470;2022-09-09T07:01:30;34.10;50.30
13721;DHT22;6932;51.438;5.470;2022-09-09T07:03:58;34.10;50.30
13721;DHT22;6932;51.438;5.470;2022-09-09T07:06:30;34.10;50.30
13721;DHT22;6932;51.438;5.470;2022-09-09T07:09:04;34.10;50.20
13721;DHT22;6932;51.438;5.470;2022-09-09T07:11:34;34.20;50.30
13721;DHT22;6932;51.438;5.470;2022-09-09T07:14:07;34.20;50.20
13721;DHT22;6932;51.438;5.470;2022-09-09T07:16:33;34.20;50.20
13721;DHT22;6932;51.438;5.470;2022-09-09T07:19:02;34.20;50.30
13721;DHT22;6932;51.438;5.470;2022-09-09T07:21:30;34.20;50.30
13721;DHT22;6932;51.438;5.470;2022-09-09T07:23:57;34.20;50.40
13721;DHT22;6932;51.438;5.470;2022-09-09T07:26:25;34.20;50.50
13721;DHT22;6932;51.438;5.470;2022-09-09T07:28:52;34.10;50.60
13721;DHT22;6932;51.438;5.470;2022-09-09T07:31:21;34.10;50.50
13721;DHT22;6932;51.438;5.470;2022-09-09T07:33:53;34.10;50.60
13721;DHT22;6932;51.438;5.470;2022-09-09T07:36:25;34.10;50.60
13721;DHT22;6932;51.438;5.470;2022-09-09T07:39:01;34.10;50.70
13721;DHT22;6932;51.438;5.470;2022-09-09T07:41:41;34.00;50.70
13721;DHT22;6932;51.438;5.470;2022-09-09T07:44:13;34.10;50.70
13721;DHT22;6932;51.438;5.470;2022-09-09T07:46:41;34.10;50.80
13721;DHT22;6932;51.438;5.470;2022-09-09T07:49:07;34.00;50.80
13721;DHT22;6932;51.438;5.470;2022-09-09T07:51:36;34.00;50.70
13721;DHT22;6932;51.438;5.470;2022-09-09T07:54:07;34.00;50.80
13721;DHT22;6932;51.438;5.470;2022-09-09T07:56:35;34.00;50.80
13721;DHT22;6932;51.438;5.470;2022-09-09T07:59:02;34.00;50.70
13721;DHT22;6932;51.438;5.470;2022-09-09T08:01:35;34.00;50.60
13721;DHT22;6932;51.438;5.470;2022-09-09T08:04:07;34.00;50.60
13721;DHT22;6932;51.438;5.470;2022-09-09T08:06:39;34.00;50.70
13721;DHT22;6932;51.438;5.470;2022-09-09T08:09:08;34.00;50.90
13721;DHT22;6932;51.438;5.470;2022-09-09T08:11:35;34.00;50.80
13721;DHT22;6932;51.438;5.470;2022-09-09T08:14:02;34.00;50.80
13721;DHT22;6932;51.438;5.470;2022-09-09T08:16:31;34.00;50.90
13721;DHT22;6932;51.438;5.470;2022-09-09T08:18:58;34.00;50.90
13721;DHT22;6932;51.438;5.470;2022-09-09T08:21:27;34.00;50.90
13721;DHT22;6932;51.438;5.470;2022-09-09T08:23:54;34.00;51.00
13721;DHT22;6932;51.438;5.470;2022-09-09T08:26:24;33.90;51.00
13721;DHT22;6932;51.438;5.470;2022-09-09T08:28:54;33.90;51.00
13721;DHT22;6932;51.438;5.470;2022-09-09T08:31:33;34.00;51.10
13721;DHT22;6932;51.438;5.470;2022-09-09T08:34:01;33.90;51.10
13721;DHT22;6932;51.438;5.470;2022-09-09T08:36:32;33.90;51.00
13721;DHT22;6932;51.438;5.470;2022-09-09T08:39:10;33.90;51.10
13721;DHT22;6932;51.438;5.470;2022-09-09T08:50:36;33.90;51.00
13721;DHT22;6932;51.438;5.470;2022-09-09T08:53:16;33.90;51.10
13721;DHT22;6932;51.438;5.470;2022-09-09T08:55:49;33.90;51.20
13721;DHT22;6932;51.438;5.470;2022-09-09T08:58:32;33.90;51.10
13721;DHT22;6932;51.438;5.470;2022-09-09T09:12:20;33.80;51.20
13721;DHT22;6932;51.438;5.470;2022-09-09T09:14:48;33.80;51.10
13721;DHT22;6932;51.438;5.470;2022-09-09T09:17:20;33.80;51.10
13721;DHT22;6932;51.438;5.470;2022-09-09T09:19:49;33.80;51.10
13721;DHT22;6932;51.438;5.470;2022-09-09T09:25:04;33.90;51.20
13721;DHT22;6932;51.438;5.470;2022-09-09T09:27:45;33.90;51.30
13721;DHT22;6932;51.438;5.470;2022-09-09T09:30:22;33.90;51.30
13721;DHT22;6932;51.438;5.470;2022-09-09T09:32:56;33.80;51.30
13721;DHT22;6932;51.438;5.470;2022-09-09T09:35:24;33.80;51.20
13721;DHT22;6932;51.438;5.470;2022-09-09T09:37:50;33.80;51.30
13721;DHT22;6932;51.438;5.470;2022-09-09T09:40:18;33.80;51.30
13721;DHT22;6932;51.438;5.470;2022-09-09T09:42:54;33.80;51.30
13721;DHT22;6932;51.438;5.470;2022-09-09T09:45:32;33.80;51.30
13721;DHT22;6932;51.438;5.470;2022-09-09T09:48:05;33.80;51.30
13721;DHT22;6932;51.438;5.470;2022-09-09T09:50:34;33.80;51.20
13721;DHT22;6932;51.438;5.470;2022-09-09T09:53:03;33.90;51.30
13721;DHT22;6932;51.438;5.470;2022-09-09T09:55:31;33.80;51.20
13721;DHT22;6932;51.438;5.470;2022-09-09T09:58:04;33.90;51.30
13721;DHT22;6932;51.438;5.470;2022-09-09T10:00:32;33.90;51.30
13721;DHT22;6932;51.438;5.470;2022-09-09T10:03:00;33.90;51.40
13721;DHT22;6932;51.438;5.470;2022-09-09T10:05:28;33.80;51.30
13721;DHT22;6932;51.438;5.470;2022-09-09T10:08:09;33.80;51.40
13721;DHT22;6932;51.438;5.470;2022-09-09T10:23:16;33.90;51.10
13721;DHT22;6932;51.438;5.470;2022-09-09T10:29:27;33.90;51.20
13721;DHT22;6932;51.438;5.470;2022-09-09T10:32:40;33.90;51.10
13721;DHT22;6932;51.438;5.470;2022-09-09T10:38:37;33.90;51.10
13721;DHT22;6932;51.438;5.470;2022-09-09T10:56:09;34.00;50.90
13721;DHT22;6932;51.438;5.470;2022-09-09T10:59:22;34.00;50.80
13721;DHT22;6932;51.438;5.470;2022-09-09T11:02:03;34.00;50.80
13721;DHT22;6932;51.438;5.470;2022-09-09T11:04:53;34.00;50.80
13721;DHT22;6932;51.438;5.470;2022-09-09T11:07:34;34.00;51.40
13721;DHT22;6932;51.438;5.470;2022-09-09T11:10:34;34.10;50.70
13721;DHT22;6932;51.438;5.470;2022-09-09T11:13:20;34.00;50.70
13721;DHT22;6932;51.438;5.470;2022-09-09T11:18:48;34.10;50.80
13721;DHT22;6932;51.438;5.470;2022-09-09T11:21:28;34.10;50.90
13721;DHT22;6932;51.438;5.470;2022-09-09T11:24:03;34.00;51.00
13721;DHT22;6932;51.438;5.470;2022-09-09T11:38:56;33.90;51.20
13721;DHT22;6932;51.438;5.470;2022-09-09T11:41:44;33.90;51.20
13721;DHT22;6932;51.438;5.470;2022-09-09T11:44:12;33.90;51.30
13721;DHT22;6932;51.438;5.470;2022-09-09T11:46:47;33.90;51.30
13721;DHT22;6932;51.438;5.470;2022-09-09T11:49:40;33.90;51.40
13721;DHT22;6932;51.438;5.470;2022-09-09T11:55:09;33.80;51.40
13721;DHT22;6932;51.438;5.470;2022-09-09T11:57:38;33.90;51.40
13721;DHT22;6932;51.438;5.470;2022-09-09T12:00:05;33.80;51.40
13721;DHT22;6932;51.438;5.470;2022-09-09T12:02:32;33.80;51.40
13721;DHT22;6932;51.438;5.470;2022-09-09T12:05:13;33.80;51.30
13721;DHT22;6932;51.438;5.470;2022-09-09T12:07:54;33.80;51.40
13721;DHT22;6932;51.438;5.470;2022-09-09T12:10:30;33.90;51.50
13721;DHT22;6932;51.438;5.470;2022-09-09T12:13:17;33.90;51.50
13721;DHT22;6932;51.438;5.470;2022-09-09T12:15:50;33.90;51.50
13721;DHT22;6932;51.438;5.470;2022-09-09T12:18:32;33.90;51.50
13721;DHT22;6932;51.438;5.470;2022-09-09T12:21:07;33.90;51.50
13721;DHT22;6932;51.438;5.470;2022-09-09T12:24:10;33.80;51.50
13721;DHT22;6932;51.438;5.470;2022-09-09T12:32:12;33.80;51.70
13721;DHT22;6932;51.438;5.470;2022-09-09T12:34:55;33.80;51.70
13721;DHT22;6932;51.438;5.470;2022-09-09T12:39:56;33.80;51.70
13721;DHT22;6932;51.438;5.470;2022-09-09T12:42:24;33.80;51.80
13721;DHT22;6932;51.438;5.470;2022-09-09T12:44:59;33.80;51.80
13721;DHT22;6932;51.438;5.470;2022-09-09T12:47:37;33.80;51.90
13721;DHT22;6932;51.438;5.470;2022-09-09T12:50:20;33.70;51.80
13721;DHT22;6932;51.438;5.470;2022-09-09T12:52:49;33.70;51.80
13721;DHT22;6932;51.438;5.470;2022-09-09T12:55:23;33.70;51.70
13721;DHT22;6932;51.438;5.470;2022-09-09T12:57:51;33.70;51.70
13721;DHT22;6932;51.438;5.470;2022-09-09T13:00:20;33.70;51.60
13721;DHT22;6932;51.438;5.470;2022-09-09T13:03:01;33.70;51.60
13721;DHT22;6932;51.438;5.470;2022-09-09T13:05:39;33.80;51.70
13721;DHT22;6932;51.438;5.470;2022-09-09T13:08:11;33.80;51.60
13721;DHT22;6932;51.438;5.470;2022-09-09T13:10:58;33.80;51.70
13721;DHT22;6932;51.438;5.470;2022-09-09T13:13:42;33.80;51.80
13721;DHT22;6932;51.438;5.470;2022-09-09T13:16:34;33.80;51.90
13721;DHT22;6932;51.438;5.470;2022-09-09T13:19:08;33.70;51.90
13721;DHT22;6932;51.438;5.470;2022-09-09T13:21:39;33.70;51.90
13721;DHT22;6932;51.438;5.470;2022-09-09T13:24:41;33.70;51.90
13721;DHT22;6932;51.438;5.470;2022-09-09T13:30:24;33.70;52.00
13721;DHT22;6932;51.438;5.470;2022-09-09T13:35:54;33.70;52.10
13721;DHT22;6932;51.438;5.470;2022-09-09T13:38:25;33.70;52.10
13721;DHT22;6932;51.438;5.470;2022-09-09T13:41:02;33.70;51.90
13721;DHT22;6932;51.438;5.470;2022-09-09T13:43:34;33.80;51.90
13721;DHT22;6932;51.438;5.470;2022-09-09T13:46:05;33.80;51.70
13721;DHT22;6932;51.438;5.470;2022-09-09T13:48:56;33.80;51.50
13721;DHT22;6932;51.438;5.470;2022-09-09T13:51:35;33.90;51.20
13721;DHT22;6932;51.438;5.470;2022-09-09T13:54:06;34.00;51.00
13721;DHT22;6932;51.438;5.470;2022-09-09T13:56:36;34.00;50.70
13721;DHT22;6932;51.438;5.470;2022-09-09T13:59:05;34.10;50.80
13721;DHT22;6932;51.438;5.470;2022-09-09T14:01:35;34.10;50.80
13721;DHT22;6932;51.438;5.470;2022-09-09T14:04:02;34.20;51.00
13721;DHT22;6932;51.438;5.470;2022-09-09T14:06:28;34.20;51.20
13721;DHT22;6932;51.438;5.470;2022-09-09T14:08:55;34.20;51.20
13721;DHT22;6932;51.438;5.470;2022-09-09T14:11:21;34.10;51.80
13721;DHT22;6932;51.438;5.470;2022-09-09T14:13:48;34.10;51.20
13721;DHT22;6932;51.438;5.470;2022-09-09T14:16:16;34.20;51.20
13721;DHT22;6932;51.438;5.470;2022-09-09T14:18:44;34.20;51.30
13721;DHT22;6932;51.438;5.470;2022-09-09T14:21:13;34.20;51.30
13721;DHT22;6932;51.438;5.470;2022-09-09T14:23:40;34.20;51.40
13721;DHT22;6932;51.438;5.470;2022-09-09T14:26:06;34.10;51.30
13721;DHT22;6932;51.438;5.470;2022-09-09T14:28:33;34.10;51.40
13721;DHT22;6932;51.438;5.470;2022-09-09T14:31:04;34.10;51.50
13721;DHT22;6932;51.438;5.470;2022-09-09T14:33:30;34.10;52.20
13721;DHT22;6932;51.438;5.470;2022-09-09T14:35:57;34.10;51.60
13721;DHT22;6932;51.438;5.470;2022-09-09T14:38:25;34.10;51.60
13721;DHT22;6932;51.438;5.470;2022-09-09T14:40:53;34.10;51.70
13721;DHT22;6932;51.438;5.470;2022-09-09T14:43:19;34.10;51.70
13721;DHT22;6932;51.438;5.470;2022-09-09T14:45:45;34.10;51.80
13721;DHT22;6932;51.438;5.470;2022-09-09T14:48:13;34.10;51.90
13721;DHT22;6932;51.438;5.470;2022-09-09T14:50:40;34.10;52.00
13721;DHT22;6932;51.438;5.470;2022-09-09T14:53:07;34.10;52.00
13721;DHT22;6932;51.438;5.470;2022-09-09T14:55:34;34.00;52.00
13721;DHT22;6932;51.438;5.470;2022-09-09T14:58:00;34.00;52.10
13721;DHT22;6932;51.438;5.470;2022-09-09T15:00:26;34.00;52.20
13721;DHT22;6932;51.438;5.470;2022-09-09T15:02:53;34.00;52.20
13721;DHT22;6932;51.438;5.470;2022-09-09T15:05:19;34.00;52.30
13721;DHT22;6932;51.438;5.470;2022-09-09T15:07:45;34.00;52.30
13721;DHT22;6932;51.438;5.470;2022-09-09T15:10:11;34.00;52.20
13721;DHT22;6932;51.438;5.470;2022-09-09T15:12:37;34.10;52.40
13721;DHT22;6932;51.438;5.470;2022-09-09T15:15:04;34.00;52.20
13721;DHT22;6932;51.438;5.470;2022-09-09T15:17:30;34.10;52.30
13721;DHT22;6932;51.438;5.470;2022-09-09T15:19:57;34.10;52.30
13721;DHT22;6932;51.438;5.470;2022-09-09T15:22:23;34.00;52.30
13721;DHT22;6932;51.438;5.470;2022-09-09T15:24:50;34.10;52.50
13721;DHT22;6932;51.438;5.470;2022-09-09T15:27:16;34.00;52.40
13721;DHT22;6932;51.438;5.470;2022-09-09T15:29:42;34.00;52.50
13721;DHT22;6932;51.438;5.470;2022-09-09T15:32:09;34.00;52.50
13721;DHT22;6932;51.438;5.470;2022-09-09T15:34:35;34.00;52.80
13721;DHT22;6932;51.438;5.470;2022-09-09T15:37:01;34.00;52.70
13721;DHT22;6932;51.438;5.470;2022-09-09T15:39:27;34.00;52.60
13721;DHT22;6932;51.438;5.470;2022-09-09T15:41:52;34.00;52.60
13721;DHT22;6932;51.438;5.470;2022-09-09T15:44:18;34.00;52.60
13721;DHT22;6932;51.438;5.470;2022-09-09T15:46:45;34.00;52.60
13721;DHT22;6932;51.438;5.470;2022-09-09T15:49:16;34.00;52.50
13721;DHT22;6932;51.438;5.470;2022-09-09T15:51:46;33.90;52.50
13721;DHT22;6932;51.438;5.470;2022-09-09T15:54:17;34.00;52.60
13721;DHT22;6932;51.438;5.470;2022-09-09T15:56:44;34.00;52.60
13721;DHT22;6932;51.438;5.470;2022-09-09T15:59:12;34.00;52.50
13721;DHT22;6932;51.438;5.470;2022-09-09T16:01:38;34.00;52.40
13721;DHT22;6932;51.438;5.470;2022-09-09T16:04:05;34.00;52.30
13721;DHT22;6932;51.438;5.470;2022-09-09T16:06:31;34.10;52.20
13721;DHT22;6932;51.438;5.470;2022-09-09T16:08:59;34.20;52.60
13721;DHT22;6932;51.438;5.470;2022-09-09T16:11:36;34.20;51.70
13721;DHT22;6932;51.438;5.470;2022-09-09T16:14:03;34.30;51.60
13721;DHT22;6932;51.438;5.470;2022-09-09T16:16:31;34.40;51.50
13721;DHT22;6932;51.438;5.470;2022-09-09T16:19:00;34.40;51.30
13721;DHT22;6932;51.438;5.470;2022-09-09T16:21:30;34.40;51.10
13721;DHT22;6932;51.438;5.470;2022-09-09T16:24:00;34.50;51.00
13721;DHT22;6932;51.438;5.470;2022-09-09T16:26:29;34.60;51.00
13721;DHT22;6932;51.438;5.470;2022-09-09T16:28:57;34.60;50.90
13721;DHT22;6932;51.438;5.470;2022-09-09T16:31:24;34.70;50.70
13721;DHT22;6932;51.438;5.470;2022-09-09T16:33:52;34.60;50.50
13721;DHT22;6932;51.438;5.470;2022-09-09T16:36:22;34.70;50.40
13721;DHT22;6932;51.438;5.470;2022-09-09T16:39:10;34.70;50.10
13721;DHT22;6932;51.438;5.470;2022-09-09T16:41:38;34.70;50.00
13721;DHT22;6932;51.438;5.470;2022-09-09T16:44:07;34.80;49.90
13721;DHT22;6932;51.438;5.470;2022-09-09T16:46:37;34.80;49.90
13721;DHT22;6932;51.438;5.470;2022-09-09T16:49:05;34.80;50.30
13721;DHT22;6932;51.438;5.470;2022-09-09T16:51:38;34.70;50.50
13721;DHT22;6932;51.438;5.470;2022-09-09T16:54:07;34.70;50.70
13721;DHT22;6932;51.438;5.470;2022-09-09T16:56:36;34.70;50.70
13721;DHT22;6932;51.438;5.470;2022-09-09T16:59:06;34.60;50.60
13721;DHT22;6932;51.438;5.470;2022-09-09T17:01:43;34.60;50.70
13721;DHT22;6932;51.438;5.470;2022-09-09T17:04:13;34.60;50.70
13721;DHT22;6932;51.438;5.470;2022-09-09T17:06:47;34.60;50.60
13721;DHT22;6932;51.438;5.470;2022-09-09T17:09:17;34.60;50.50
13721;DHT22;6932;51.438;5.470;2022-09-09T17:11:44;34.60;50.40
13721;DHT22;6932;51.438;5.470;2022-09-09T17:14:14;34.60;50.30
13721;DHT22;6932;51.438;5.470;2022-09-09T17:16:42;34.60;50.10
13721;DHT22;6932;51.438;5.470;2022-09-09T17:19:09;34.60;50.10
13721;DHT22;6932;51.438;5.470;2022-09-09T17:21:36;34.60;50.00
13721;DHT22;6932;51.438;5.470;2022-09-09T17:24:02;34.70;50.00
13721;DHT22;6932;51.438;5.470;2022-09-09T17:26:29;34.70;49.90
13721;DHT22;6932;51.438;5.470;2022-09-09T17:28:57;34.70;49.90
13721;DHT22;6932;51.438;5.470;2022-09-09T17:31:25;34.70;49.80
13721;DHT22;6932;51.438;5.470;2022-09-09T17:33:52;34.70;49.80
13721;DHT22;6932;51.438;5.470;2022-09-09T17:36:26;34.70;49.70
13721;DHT22;6932;51.438;5.470;2022-09-09T17:38:57;34.70;49.60
13721;DHT22;6932;51.438;5.470;2022-09-09T17:41:27;34.70;49.60
13721;DHT22;6932;51.438;5.470;2022-09-09T17:43:57;34.70;49.60
13721;DHT22;6932;51.438;5.470;2022-09-09T17:46:34;34.80;49.70
13721;DHT22;6932;51.438;5.470;2022-09-09T17:49:05;34.80;49.70
13721;DHT22;6932;51.438;5.470;2022-09-09T17:51:33;34.70;49.60
13721;DHT22;6932;51.438;5.470;2022-09-09T17:54:01;34.70;49.70
13721;DHT22;6932;51.438;5.470;2022-09-09T17:56:31;34.80;49.70
13721;DHT22;6932;51.438;5.470;2022-09-09T17:58:59;34.80;49.70